createdAt,value
2023-03-06T00:00:54.706Z,115.32
2023-03-06T00:03:22.445Z,115.35
2023-03-06T00:05:49.315Z,115.35
2023-03-06T00:08:16.138Z,115.75
2023-03-06T00:10:42.978Z,116.11
2023-03-06T00:13:13.868Z,115.96
2023-03-06T00:15:41.354Z,115.91
2023-03-06T00:18:08.838Z,115.74
2023-03-06T00:20:35.648Z,115.89
2023-03-06T00:23:02.902Z,115.66
2023-03-06T00:25:29.789Z,116.08
2023-03-06T00:27:56.772Z,116.02
2023-03-06T00:30:24.816Z,115.89
2023-03-06T00:32:53.025Z,115.64
2023-03-06T00:35:20.142Z,115.66
2023-03-06T00:37:46.914Z,115.67
2023-03-06T00:40:16.000Z,115.48
2023-03-06T00:42:42.919Z,115.77
2023-03-06T00:45:10.288Z,115.65
2023-03-06T00:47:37.299Z,115.83
2023-03-06T00:50:05.063Z,115.73
2023-03-06T00:52:31.950Z,115.86
2023-03-06T00:54:58.709Z,115.96
2023-03-06T00:57:25.627Z,116.25
2023-03-06T00:59:52.615Z,116.79
2023-03-06T01:02:19.455Z,117.20
2023-03-06T01:04:46.352Z,117.25
2023-03-06T01:07:13.120Z,117.58
2023-03-06T01:09:40.046Z,117.87
2023-03-06T01:12:07.361Z,118.21
2023-03-06T01:14:34.456Z,118.37
2023-03-06T01:17:02.143Z,118.26
2023-03-06T01:19:28.886Z,118.15
2023-03-06T01:21:56.176Z,118.34
2023-03-06T01:24:25.700Z,118.41
2023-03-06T01:26:52.710Z,118.25
2023-03-06T01:29:19.896Z,118.37
2023-03-06T01:31:46.874Z,118.29
2023-03-06T01:34:14.822Z,118.31
2023-03-06T01:36:41.815Z,118.03
2023-03-06T01:39:08.534Z,118.21
2023-03-06T01:41:35.520Z,118.11
2023-03-06T01:44:02.692Z,118.05
2023-03-06T01:46:30.109Z,117.87
2023-03-06T01:49:06.228Z,117.49
2023-03-06T01:51:41.273Z,117.57
2023-03-06T01:54:17.714Z,117.56
2023-03-06T01:56:46.443Z,117.55
2023-03-06T01:59:13.821Z,117.57
2023-03-06T02:01:41.708Z,117.31
2023-03-06T02:04:09.196Z,117.32
2023-03-06T02:06:38.442Z,117.26
2023-03-06T02:09:06.355Z,117.11
2023-03-06T02:11:33.421Z,117.14
2023-03-06T02:14:00.579Z,117.28
2023-03-06T02:16:31.014Z,117.10
2023-03-06T02:19:00.640Z,117.06
2023-03-06T02:21:32.683Z,116.83
2023-03-06T02:24:18.204Z,116.68
2023-03-06T02:26:46.748Z,116.15
2023-03-06T02:29:18.200Z,115.85
2023-03-06T02:31:44.853Z,116.10
2023-03-06T02:34:14.616Z,116.37
2023-03-06T02:36:45.620Z,116.57
2023-03-06T02:39:13.431Z,116.73
2023-03-06T02:41:40.586Z,116.62
2023-03-06T02:44:07.679Z,116.57
2023-03-06T02:46:34.541Z,116.73
2023-03-06T02:49:01.373Z,117.00
2023-03-06T02:51:28.530Z,116.77
2023-03-06T02:53:55.190Z,116.96
2023-03-06T02:56:22.562Z,116.96
2023-03-06T02:58:49.649Z,116.85
2023-03-06T03:01:16.409Z,116.67
2023-03-06T03:03:43.156Z,116.55
2023-03-06T03:06:10.254Z,116.49
2023-03-06T03:08:37.262Z,116.31
2023-03-06T03:11:04.969Z,116.58
2023-03-06T03:13:32.541Z,116.35
2023-03-06T03:16:04.058Z,116.63
2023-03-06T03:18:31.112Z,116.40
2023-03-06T03:20:57.782Z,116.21
2023-03-06T03:23:25.089Z,116.49
2023-03-06T03:25:51.901Z,116.24
2023-03-06T03:28:19.184Z,115.65
2023-03-06T03:30:45.940Z,115.56
2023-03-06T03:33:13.009Z,115.92
2023-03-06T03:35:39.891Z,115.99
2023-03-06T03:38:06.602Z,115.74
2023-03-06T03:40:33.448Z,115.96
2023-03-06T03:43:00.113Z,115.70
2023-03-06T03:45:26.844Z,115.26
2023-03-06T03:47:53.598Z,114.90
2023-03-06T03:50:20.295Z,115.26
2023-03-06T03:52:47.036Z,115.27
2023-03-06T03:55:13.718Z,115.25
2023-03-06T03:57:40.408Z,115.16
2023-03-06T04:00:08.087Z,114.95
2023-03-06T04:02:34.787Z,115.09
2023-03-06T04:05:01.620Z,114.48
2023-03-06T04:07:28.499Z,114.70
2023-03-06T04:09:55.501Z,114.71
2023-03-06T04:12:22.161Z,115.19
2023-03-06T04:14:48.824Z,115.29
2023-03-06T04:17:15.582Z,115.29
2023-03-06T04:19:42.313Z,115.38
2023-03-06T04:22:09.140Z,115.31
2023-03-06T04:24:36.003Z,115.53
2023-03-06T04:27:02.735Z,115.44
2023-03-06T04:29:29.514Z,115.51
2023-03-06T04:31:56.302Z,115.40
2023-03-06T04:34:22.973Z,115.29
2023-03-06T04:36:49.598Z,115.22
2023-03-06T04:39:16.593Z,115.67
2023-03-06T04:41:43.354Z,115.85
2023-03-06T04:44:10.090Z,116.23
2023-03-06T04:46:36.972Z,116.53
2023-03-06T04:49:04.198Z,116.16
2023-03-06T04:51:31.170Z,116.60
2023-03-06T04:53:57.955Z,116.56
2023-03-06T04:56:24.620Z,117.01
2023-03-06T04:58:51.378Z,117.45
2023-03-06T05:01:18.549Z,117.33
2023-03-06T05:03:45.421Z,117.25
2023-03-06T05:06:12.448Z,117.52
2023-03-06T05:08:39.294Z,117.41
2023-03-06T05:11:05.970Z,117.86
2023-03-06T05:13:32.881Z,118.05
2023-03-06T05:16:07.180Z,118.18
2023-03-06T05:18:34.800Z,118.01
2023-03-06T05:21:02.119Z,118.13
2023-03-06T05:23:30.047Z,118.18
2023-03-06T05:25:57.685Z,118.10
2023-03-06T05:28:25.963Z,118.15
2023-03-06T05:30:53.079Z,118.11
2023-03-06T05:33:19.875Z,118.42
2023-03-06T05:35:47.730Z,118.61
2023-03-06T05:38:15.957Z,118.54
2023-03-06T05:40:45.126Z,118.60
2023-03-06T05:43:12.470Z,118.40
2023-03-06T05:45:40.503Z,118.57
2023-03-06T05:48:07.866Z,118.40
2023-03-06T05:50:34.786Z,118.48
2023-03-06T05:53:01.622Z,118.08
2023-03-06T05:55:28.370Z,118.00
2023-03-06T05:57:55.243Z,118.07
2023-03-06T06:00:22.459Z,118.08
2023-03-06T06:02:49.398Z,118.99
2023-03-06T06:05:16.233Z,118.05
2023-03-06T06:07:43.000Z,117.15
2023-03-06T06:10:11.376Z,117.59
2023-03-06T06:12:38.390Z,117.76
2023-03-06T06:15:06.563Z,117.85
2023-03-06T06:17:33.573Z,117.59
2023-03-06T06:20:00.363Z,117.35
2023-03-06T06:22:27.343Z,117.47
2023-03-06T06:24:53.957Z,117.48
2023-03-06T06:27:20.664Z,117.18
2023-03-06T06:29:51.242Z,117.28
2023-03-06T06:32:17.960Z,116.88
2023-03-06T06:34:44.711Z,116.67
2023-03-06T06:37:11.690Z,116.51
2023-03-06T06:39:38.368Z,116.30
2023-03-06T06:42:28.304Z,116.14
2023-03-06T06:44:52.269Z,115.63
2023-03-06T06:47:22.825Z,114.86
2023-03-06T06:49:53.194Z,115.35
2023-03-06T06:52:20.071Z,115.29
2023-03-06T06:54:46.907Z,115.11
2023-03-06T06:57:13.988Z,114.87
2023-03-06T06:59:40.909Z,114.99
2023-03-06T07:02:07.946Z,114.72
2023-03-06T07:04:34.656Z,114.02
2023-03-06T07:07:01.385Z,113.98
2023-03-06T07:09:30.286Z,113.87
2023-03-06T07:11:57.324Z,113.51
2023-03-06T07:14:24.364Z,113.16
2023-03-06T07:16:51.274Z,112.62
2023-03-06T07:19:18.060Z,111.44
2023-03-06T07:21:44.729Z,111.26
2023-03-06T07:24:11.405Z,109.84
2023-03-06T07:26:38.364Z,109.55
2023-03-06T07:29:05.232Z,109.62
2023-03-06T07:31:32.197Z,109.07
2023-03-06T07:33:58.979Z,108.17
2023-03-06T07:36:25.886Z,108.25
2023-03-06T07:38:52.640Z,107.13
2023-03-06T07:41:22.173Z,107.07
2023-03-06T07:43:49.742Z,107.17
2023-03-06T07:46:16.608Z,107.33
2023-03-06T07:48:43.465Z,107.29
2023-03-06T07:51:19.529Z,112.87
2023-03-06T07:53:47.425Z,105.76
2023-03-06T07:56:14.128Z,107.99
2023-03-06T07:58:43.862Z,108.12
2023-03-06T08:01:21.635Z,107.55
2023-03-06T08:03:50.015Z,108.06
2023-03-06T08:06:25.889Z,108.90
2023-03-06T08:08:54.767Z,109.12
2023-03-06T08:11:24.641Z,109.00
2023-03-06T08:13:53.018Z,108.01
2023-03-06T08:16:21.535Z,108.52
2023-03-06T08:18:48.462Z,106.66
2023-03-06T08:21:18.392Z,103.61
2023-03-06T08:23:46.431Z,100.27
2023-03-06T08:26:22.027Z,99.21
2023-03-06T08:28:50.280Z,97.20
2023-03-06T08:31:33.745Z,92.35
2023-03-06T08:34:04.585Z,94.65
2023-03-06T08:36:31.478Z,92.87
2023-03-06T08:38:58.696Z,95.68
2023-03-06T08:41:25.909Z,94.09
2023-03-06T08:43:52.708Z,90.66
2023-03-06T08:46:21.495Z,91.13
2023-03-06T08:48:48.258Z,88.55
2023-03-06T08:51:15.603Z,93.37
2023-03-06T08:53:44.118Z,94.70
2023-03-06T08:56:18.203Z,96.16
2023-03-06T08:58:45.252Z,96.72
2023-03-06T09:01:21.528Z,97.76
2023-03-06T09:03:48.992Z,97.53
2023-03-06T09:06:16.748Z,99.37
2023-03-06T09:08:44.559Z,100.04
2023-03-06T09:11:13.514Z,99.16
2023-03-06T09:13:40.991Z,98.51
2023-03-06T09:16:09.175Z,96.57
2023-03-06T09:18:36.585Z,93.75
2023-03-06T09:21:04.455Z,91.77
2023-03-06T09:23:31.506Z,88.98
2023-03-06T09:25:59.789Z,90.36
2023-03-06T09:28:26.661Z,83.87
2023-03-06T09:30:53.644Z,79.88
2023-03-06T09:33:20.970Z,76.78
2023-03-06T09:35:49.388Z,75.57
2023-03-06T09:38:16.263Z,75.55
2023-03-06T09:41:05.917Z,74.96
2023-03-06T09:43:38.659Z,76.49
2023-03-06T09:46:27.632Z,79.01
2023-03-06T09:49:12.239Z,81.27
2023-03-06T09:51:54.170Z,74.59
2023-03-06T09:54:33.716Z,69.45
2023-03-06T09:57:00.620Z,77.54
2023-03-06T09:59:28.542Z,78.53
2023-03-06T10:02:08.371Z,80.36
2023-03-06T10:04:40.843Z,79.99
2023-03-06T10:07:11.742Z,73.57
2023-03-06T10:10:01.314Z,73.40
2023-03-06T10:12:33.988Z,75.99
2023-03-06T10:15:22.397Z,76.64
2023-03-06T10:17:49.253Z,69.11
2023-03-06T10:20:41.037Z,66.46
2023-03-06T10:23:29.156Z,67.23
2023-03-06T10:26:24.328Z,66.15
2023-03-06T10:29:11.575Z,62.06
2023-03-06T10:31:49.670Z,61.01
2023-03-06T10:34:43.444Z,53.91
2023-03-06T10:37:19.232Z,55.28
2023-03-06T10:39:46.670Z,59.09
2023-03-06T10:42:13.451Z,57.13
2023-03-06T10:44:40.181Z,54.75
2023-03-06T10:47:31.842Z,54.93
2023-03-06T10:50:07.315Z,53.93
2023-03-06T10:52:35.933Z,53.43
2023-03-06T10:55:29.301Z,51.96
2023-03-06T10:57:56.708Z,51.69
2023-03-06T11:00:36.048Z,47.62
2023-03-06T11:03:24.461Z,46.06
2023-03-06T11:06:05.735Z,48.47
2023-03-06T11:08:33.381Z,46.86
2023-03-06T11:11:07.507Z,47.77
2023-03-06T11:13:37.198Z,50.37
2023-03-06T11:16:25.862Z,44.98
2023-03-06T11:19:36.920Z,44.73
2023-03-06T11:22:05.184Z,44.95
2023-03-06T11:24:45.831Z,49.24
2023-03-06T11:27:18.611Z,51.28
2023-03-06T11:29:50.434Z,46.93
2023-03-06T11:32:25.881Z,54.54
2023-03-06T11:34:58.215Z,46.44
2023-03-06T11:37:41.753Z,41.36
2023-03-06T11:40:11.701Z,44.33
2023-03-06T11:43:23.584Z,47.50
2023-03-06T11:46:16.484Z,43.03
2023-03-06T11:48:52.858Z,44.09
2023-03-06T11:51:26.445Z,42.61
2023-03-06T11:53:54.009Z,42.52
2023-03-06T11:56:38.994Z,42.74
2023-03-06T11:59:30.547Z,39.09
2023-03-06T12:02:00.719Z,44.57
2023-03-06T12:04:47.315Z,44.80
2023-03-06T12:07:31.637Z,43.87
2023-03-06T12:10:26.198Z,41.42
2023-03-06T12:13:29.135Z,45.61
2023-03-06T12:15:59.130Z,43.77
2023-03-06T12:18:47.518Z,45.08
2023-03-06T12:21:50.289Z,44.93
2023-03-06T12:24:36.322Z,42.08
2023-03-06T12:27:05.964Z,41.70
2023-03-06T12:30:02.147Z,40.20
2023-03-06T12:32:50.778Z,42.99
2023-03-06T12:35:26.782Z,40.47
2023-03-06T12:38:24.629Z,38.63
2023-03-06T12:41:03.361Z,37.08
2023-03-06T12:43:42.234Z,39.89
2023-03-06T12:46:15.329Z,39.57
2023-03-06T12:48:45.574Z,41.75
2023-03-06T12:51:18.008Z,42.50
2023-03-06T12:53:45.764Z,41.89
2023-03-06T12:56:15.425Z,42.71
2023-03-06T12:58:51.329Z,45.87
2023-03-06T13:01:36.878Z,43.39
2023-03-06T13:04:27.540Z,44.93
2023-03-06T13:07:13.215Z,45.35
2023-03-06T13:10:02.459Z,44.09
2023-03-06T13:12:57.575Z,40.81
2023-03-06T13:16:04.265Z,41.51
2023-03-06T13:18:34.056Z,39.23
2023-03-06T13:21:01.208Z,39.23
2023-03-06T13:23:35.002Z,39.07
2023-03-06T13:26:10.647Z,38.33
2023-03-06T13:28:46.460Z,37.07
2023-03-06T13:31:26.630Z,35.74
2023-03-06T13:33:55.876Z,35.96
2023-03-06T13:36:33.569Z,35.84
2023-03-06T13:39:03.489Z,35.08
2023-03-06T13:41:38.332Z,33.68
2023-03-06T13:44:25.056Z,33.99
2023-03-06T13:47:05.875Z,35.26
2023-03-06T13:49:33.852Z,38.20
2023-03-06T13:52:35.626Z,39.16
2023-03-06T13:55:25.432Z,39.99
2023-03-06T13:58:29.926Z,39.96
2023-03-06T14:00:59.716Z,42.55
2023-03-06T14:03:51.358Z,44.12
2023-03-06T14:06:37.201Z,45.48
2023-03-06T14:09:06.123Z,45.51
2023-03-06T14:11:34.206Z,46.64
2023-03-06T14:14:01.056Z,46.70
2023-03-06T14:16:49.238Z,48.70
2023-03-06T14:19:18.696Z,47.46
2023-03-06T14:21:47.501Z,49.00
2023-03-06T14:24:20.003Z,56.03
2023-03-06T14:26:49.646Z,49.15
2023-03-06T14:29:27.778Z,49.47
2023-03-06T14:31:57.496Z,50.03
2023-03-06T14:34:25.701Z,50.19
2023-03-06T14:36:59.930Z,49.91
2023-03-06T14:39:34.822Z,49.13
2023-03-06T14:42:21.117Z,48.44
2023-03-06T14:44:49.747Z,49.00
2023-03-06T14:47:27.377Z,47.33
2023-03-06T14:50:29.432Z,46.02
2023-03-06T14:53:27.949Z,48.08
2023-03-06T14:56:06.443Z,47.12
2023-03-06T14:58:48.276Z,49.02
2023-03-06T15:01:16.946Z,49.27
2023-03-06T15:03:45.781Z,48.37
2023-03-06T15:06:20.080Z,49.05
2023-03-06T15:08:52.144Z,48.73
2023-03-06T15:11:18.922Z,49.53
2023-03-06T15:14:00.779Z,50.56
2023-03-06T15:16:30.356Z,50.66
2023-03-06T15:19:01.241Z,51.46
2023-03-06T15:21:34.544Z,51.03
2023-03-06T15:24:01.354Z,51.17
2023-03-06T15:26:36.913Z,52.62
2023-03-06T15:29:10.621Z,52.50
2023-03-06T15:31:39.730Z,53.60
2023-03-06T15:34:06.592Z,54.90
2023-03-06T15:36:39.848Z,54.26
2023-03-06T15:39:34.768Z,55.18
2023-03-06T15:42:05.034Z,54.77
2023-03-06T15:44:32.820Z,54.63
2023-03-06T15:47:08.487Z,54.49
2023-03-06T15:49:37.708Z,56.74
2023-03-06T15:52:05.699Z,55.36
2023-03-06T15:54:33.166Z,57.43
2023-03-06T15:57:00.230Z,58.95
2023-03-06T15:59:33.283Z,58.96
2023-03-06T16:02:04.402Z,57.06
2023-03-06T16:04:31.164Z,58.15
2023-03-06T16:06:57.940Z,57.58
2023-03-06T16:09:24.661Z,56.00
2023-03-06T16:11:51.674Z,57.17
2023-03-06T16:14:21.437Z,58.55
2023-03-06T16:16:49.215Z,57.93
2023-03-06T16:19:27.771Z,59.90
2023-03-06T16:21:55.772Z,60.60
2023-03-06T16:24:22.982Z,62.02
2023-03-06T16:26:51.511Z,60.57
2023-03-06T16:29:23.434Z,60.52
2023-03-06T16:31:50.268Z,60.74
2023-03-06T16:34:19.793Z,61.63
2023-03-06T16:36:48.948Z,62.95
2023-03-06T16:39:17.737Z,65.10
2023-03-06T16:41:45.954Z,78.00
2023-03-06T16:44:13.371Z,74.44
2023-03-06T16:46:45.702Z,69.24
2023-03-06T16:49:30.796Z,68.37
2023-03-06T16:51:57.988Z,69.14
2023-03-06T16:54:26.098Z,82.09
2023-03-06T16:56:52.853Z,71.64
2023-03-06T16:59:19.609Z,71.93
2023-03-06T17:01:46.362Z,74.80
2023-03-06T17:04:13.123Z,76.03
2023-03-06T17:06:41.918Z,78.75
2023-03-06T17:09:10.919Z,77.18
2023-03-06T17:11:38.723Z,78.00
2023-03-06T17:14:06.861Z,82.24
2023-03-06T17:16:34.082Z,77.44
2023-03-06T17:19:02.333Z,78.42
2023-03-06T17:21:30.304Z,78.14
2023-03-06T17:23:57.304Z,81.27
2023-03-06T17:26:24.247Z,79.83
2023-03-06T17:28:51.061Z,79.70
2023-03-06T17:31:21.147Z,82.25
2023-03-06T17:33:48.790Z,82.39
2023-03-06T17:36:16.923Z,83.07
2023-03-06T17:38:44.006Z,84.95
2023-03-06T17:41:12.184Z,84.74
2023-03-06T17:43:40.304Z,84.58
2023-03-06T17:46:09.650Z,85.90
2023-03-06T17:48:36.868Z,87.41
2023-03-06T17:51:04.046Z,86.35
2023-03-06T17:53:30.875Z,87.03
2023-03-06T17:56:00.420Z,87.45
2023-03-06T17:58:27.814Z,91.69
2023-03-06T18:00:54.566Z,88.87
2023-03-06T18:03:21.454Z,88.58
2023-03-06T18:05:48.274Z,90.74
2023-03-06T18:08:15.013Z,90.38
2023-03-06T18:10:43.299Z,90.91
2023-03-06T18:13:10.981Z,90.46
2023-03-06T18:15:41.559Z,89.83
2023-03-06T18:18:09.139Z,90.12
2023-03-06T18:20:41.571Z,90.71
2023-03-06T18:23:08.472Z,91.83
2023-03-06T18:25:35.371Z,92.85
2023-03-06T18:28:02.045Z,93.43
2023-03-06T18:30:28.968Z,93.17
2023-03-06T18:32:55.874Z,93.37
2023-03-06T18:35:23.404Z,93.21
2023-03-06T18:37:50.151Z,93.04
2023-03-06T18:40:17.010Z,93.88
2023-03-06T18:42:43.860Z,94.07
2023-03-06T18:45:12.720Z,94.71
2023-03-06T18:47:40.155Z,101.77
2023-03-06T18:50:07.465Z,97.39
2023-03-06T18:52:34.835Z,102.92
2023-03-06T18:55:01.777Z,98.63
2023-03-06T18:57:30.305Z,95.59
2023-03-06T18:59:57.731Z,95.14
2023-03-06T19:02:24.545Z,95.07
2023-03-06T19:04:53.020Z,95.21
2023-03-06T19:07:19.711Z,95.82
2023-03-06T19:09:48.751Z,95.40
2023-03-06T19:12:15.622Z,95.65
2023-03-06T19:14:42.363Z,96.65
2023-03-06T19:17:09.277Z,96.44
2023-03-06T19:19:36.074Z,96.87
2023-03-06T19:22:02.866Z,97.19
2023-03-06T19:24:29.612Z,97.55
2023-03-06T19:26:56.337Z,97.50
2023-03-06T19:29:23.019Z,97.60
2023-03-06T19:31:52.062Z,97.87
2023-03-06T19:34:19.446Z,98.11
2023-03-06T19:36:46.188Z,97.74
2023-03-06T19:39:13.177Z,98.23
2023-03-06T19:41:39.939Z,98.71
2023-03-06T19:44:07.199Z,99.01
2023-03-06T19:46:35.198Z,99.13
2023-03-06T19:49:05.655Z,99.43
2023-03-06T19:51:32.452Z,99.68
2023-03-06T19:53:59.232Z,100.14
2023-03-06T19:56:29.086Z,100.97
2023-03-06T19:58:56.284Z,100.19
2023-03-06T20:01:25.011Z,100.79
2023-03-06T20:03:58.708Z,100.58
2023-03-06T20:06:31.497Z,100.64
2023-03-06T20:08:58.557Z,100.64
2023-03-06T20:11:29.823Z,100.43
2023-03-06T20:13:58.904Z,100.53
2023-03-06T20:16:29.521Z,100.54
2023-03-06T20:18:58.886Z,100.87
2023-03-06T20:21:29.960Z,101.56
2023-03-06T20:23:58.235Z,101.38
2023-03-06T20:26:28.168Z,102.13
2023-03-06T20:28:54.978Z,102.27
2023-03-06T20:31:24.927Z,101.78
2023-03-06T20:33:53.337Z,101.79
2023-03-06T20:36:21.605Z,102.14
2023-03-06T20:38:49.515Z,102.14
2023-03-06T20:41:21.981Z,102.18
2023-03-06T20:43:49.637Z,102.55
2023-03-06T20:46:17.076Z,102.41
2023-03-06T20:48:48.904Z,102.50
2023-03-06T20:51:31.595Z,102.38
2023-03-06T20:54:00.692Z,103.15
2023-03-06T20:56:30.463Z,103.18
2023-03-06T20:58:57.776Z,103.31
2023-03-06T21:01:32.613Z,103.07
2023-03-06T21:03:59.983Z,103.21
2023-03-06T21:06:28.493Z,102.59
2023-03-06T21:08:56.201Z,103.12
2023-03-06T21:11:23.299Z,102.59
2023-03-06T21:13:50.024Z,102.86
2023-03-06T21:16:19.483Z,102.54
2023-03-06T21:18:46.372Z,102.77
2023-03-06T21:21:18.780Z,102.78
2023-03-06T21:23:46.992Z,102.60
2023-03-06T21:26:16.243Z,102.39
2023-03-06T21:28:43.602Z,102.45
2023-03-06T21:31:12.126Z,103.07
2023-03-06T21:33:39.269Z,103.31
2023-03-06T21:36:06.563Z,103.16
2023-03-06T21:38:34.613Z,103.23
2023-03-06T21:41:13.238Z,102.42
2023-03-06T21:43:40.598Z,103.47
2023-03-06T21:46:07.691Z,104.05
2023-03-06T21:48:34.601Z,103.64
2023-03-06T21:51:19.148Z,103.33
2023-03-06T21:53:47.410Z,103.22
2023-03-06T21:56:16.246Z,102.98
2023-03-06T21:58:43.576Z,103.25
2023-03-06T22:01:19.091Z,103.40
2023-03-06T22:03:46.030Z,103.46
2023-03-06T22:06:18.584Z,103.19
2023-03-06T22:08:45.675Z,102.96
2023-03-06T22:11:15.594Z,102.91
2023-03-06T22:13:42.809Z,102.88
2023-03-06T22:16:10.172Z,102.73
2023-03-06T22:18:37.232Z,102.74
2023-03-06T22:21:12.695Z,102.75
2023-03-06T22:23:42.905Z,102.56
2023-03-06T22:26:12.683Z,102.44
2023-03-06T22:28:40.020Z,102.40
2023-03-06T22:31:23.677Z,102.67
2023-03-06T22:33:55.463Z,102.47
2023-03-06T22:36:22.943Z,102.38
2023-03-06T22:38:54.827Z,102.32
2023-03-06T22:41:21.638Z,101.89
2023-03-06T22:43:48.526Z,101.38
2023-03-06T22:46:17.630Z,101.96
2023-03-06T22:48:45.144Z,101.38
2023-03-06T22:51:14.998Z,101.15
2023-03-06T22:53:41.713Z,101.64
2023-03-06T22:56:11.258Z,101.50
2023-03-06T22:58:38.891Z,102.40
2023-03-06T23:01:11.846Z,103.25
2023-03-06T23:03:40.787Z,104.36
2023-03-06T23:06:10.496Z,104.31
2023-03-06T23:08:37.358Z,104.03
2023-03-06T23:11:09.158Z,104.24
2023-03-06T23:13:36.781Z,104.24
2023-03-06T23:16:05.084Z,104.43
2023-03-06T23:18:31.827Z,104.08
2023-03-06T23:20:58.896Z,104.08
2023-03-06T23:23:26.217Z,104.19
2023-03-06T23:25:57.948Z,104.08
2023-03-06T23:28:25.208Z,103.40
2023-03-06T23:30:51.945Z,102.99
2023-03-06T23:33:19.016Z,102.97
2023-03-06T23:35:46.551Z,102.23
2023-03-06T23:38:13.920Z,101.47
2023-03-06T23:40:40.836Z,102.02
2023-03-06T23:43:07.758Z,101.73
2023-03-06T23:45:34.436Z,100.98
2023-03-06T23:48:01.150Z,100.82
2023-03-06T23:50:27.896Z,100.29
2023-03-06T23:52:55.562Z,99.84
2023-03-06T23:55:22.469Z,99.60
2023-03-06T23:57:49.225Z,99.27
